Airfield :
LOGIN :

Register | Disclaimer

   EN    FR    IT 

 










Legend :    VFR   Marginal VFR   IFR   Intensive IFR   Very Intensive IFR
Visi :
Ceiling :
>= 8 km
>= 3000ft
5 to 8 km
1000 to 3000 ft
1500m to 5 km
500 to 1000 ft
800 to 1500m
200 to 500 ft
< 800m
< 200 ft
Symbols :   Thunderstorms  Fog  Heavy snow  Heavy precipitations  Wind > 20 kt
SIGMETs :     Misc.  Thunderstorms  Icing  Turbulence  Mountain Waves  Volcanic Ashes






- Airport Elevation : 215 ft
- IATA code : ABZ


EGPD - Aberdeen / Dyce

CURRENT METAR :
  • 301850Z AUTO 32012KT 9999 SCT027 BKN034 BKN048 06/04 Q1019 NOSIG

EXPIRED METARs :
  • 301820Z AUTO 32014KT 9999 -RA FEW017/// SCT023/// BKN030/// //////TCU 06/04 Q1019 NOSIG
  • 301750Z AUTO 32015KT 9999 -RA BKN027 BKN040 06/04 Q1018
  • 301720Z AUTO 32016KT 9999 SCT026 BKN034 BKN041 06/04 Q1017 TEMPO SHRA
  • 301650Z AUTO 32015KT 9999 FEW024 06/03 Q1017 NOSIG
  • 301620Z AUTO 32016KT 9999 FEW025 06/03 Q1016

TAF AMD TAF EGPD
Valid from the 30 at 19:00 until the 01 at 18:00 UTC


301907Z 3019/0118 30012KT 9999 FEW020
PROB30
TEMPO 3019/3021 31015G25KT 6000 SHRA
BECMG 0109/0112 20005KT



MET'MAP, your aeronautical weather chart ! - Copyright ORBIFLY December 2007 - Disclaimer

ORBIFLY MET'MAP TEAM :

Programming & Development : Alexandra Zaïnal
Concept & original design : Baudouin d'Aumeries
Assistance for programming : Marc-Olivier Méhu
Technical & hardware support : Manuel Goepfert

Contact : metmap@orbifly.com




SOURCES & CREDITS :

   NOAA